Strona główna
METAR-TAF:

METAR-TAF

Lotnisko :

Port lotniczy Savannakhet

Savannakhét, Laos

Szerokość geograficzna: 16-33-24N, Długość geograficzna: 104-45-34E, wysokość: 155 m

Aktualna obserwacja pogody

Raport powstał 45 minut temu, godzina 08:00 UTC
Wiatr 8 kt od południowy zachód
Temperatura 33°C
Wilgotność 59%
Ciśnienie 1006 hPa
Widzialność: 7000 m
Rozproszone chmury na wysokości 1600 ft
Mało chmury na wysokości 2300 ft, Cumulonimbus.
Przerywane chmury na wysokości 9300 ft
burza

METAR: VLSK 070800Z 22008KT 7000 TS SCT016 FEW023CB BKN093 33/24 Q1006 CB,OVER AD NOSIG

czas: 15:45 (08:45 UTC)

Prognoza

Raport powstał 3 godziny i 45 minut temu, godzina 05:00 UTC
Prognoza ważna od 07 godzina 06 UTC do 08 godzina 06 UTC
Wiatr 4 kt od zachodnio-południowy zachód
Widzialność: 8000 m
Rozproszone chmury na wysokości 2000 ft
Mało chmury na wysokości 5000 ft
Rozproszone chmury na wysokości 10000 ft

TAF: VLSK 070500Z 0706/0806 24004KT 8000 SCT020 FEW050 SCT100

Obserwacja i prognoza pogody dla ponad 4000 lotnisk (raport METAR i TAF).

Dostępne stacje oznaczono żółtymi i czerwonymi punktami na mapie.

Najedź kursorem aby zobaczyć nazwę stacji.

Kliknij aby zobaczyć obserwacje i prognozy pogody.

Aby zmienić mapę: kliknij na zielony przycisk z czarnym krzyżykiem, aby powiększyć; na zielony przycisk z myślnikiem, aby pomniejszyć; na zielone strzałki, aby przejść do map sąsiednich.


METAR-TAF: